sensor_id;sensor_type;location;lat;lon;timestamp;P1;durP1;ratioP1;P2;durP2;ratioP2
33690;SDS011;20026;50.058;18.428;2022-11-21T00:01:41;107.80;;;43.72;;
33690;SDS011;20026;50.058;18.428;2022-11-21T00:04:07;110.93;;;45.25;;
33690;SDS011;20026;50.058;18.428;2022-11-21T00:06:33;113.88;;;45.80;;
33690;SDS011;20026;50.058;18.428;2022-11-21T00:08:59;112.97;;;43.30;;
33690;SDS011;20026;50.058;18.428;2022-11-21T00:11:25;114.38;;;47.70;;
33690;SDS011;20026;50.058;18.428;2022-11-21T00:13:51;98.28;;;42.08;;
33690;SDS011;20026;50.058;18.428;2022-11-21T00:16:17;103.22;;;43.90;;
33690;SDS011;20026;50.058;18.428;2022-11-21T00:18:43;100.07;;;41.03;;
33690;SDS011;20026;50.058;18.428;2022-11-21T00:21:13;100.15;;;41.30;;
33690;SDS011;20026;50.058;18.428;2022-11-21T00:23:39;103.13;;;41.08;;
33690;SDS011;20026;50.058;18.428;2022-11-21T00:26:06;95.38;;;41.35;;
33690;SDS011;20026;50.058;18.428;2022-11-21T00:28:32;91.95;;;37.53;;
33690;SDS011;20026;50.058;18.428;2022-11-21T00:30:58;98.25;;;39.15;;
33690;SDS011;20026;50.058;18.428;2022-11-21T00:33:24;91.93;;;38.30;;
33690;SDS011;20026;50.058;18.428;2022-11-21T00:35:50;92.82;;;37.17;;
33690;SDS011;20026;50.058;18.428;2022-11-21T00:38:16;90.03;;;36.00;;
33690;SDS011;20026;50.058;18.428;2022-11-21T00:40:42;91.75;;;36.17;;
33690;SDS011;20026;50.058;18.428;2022-11-21T00:43:09;94.90;;;36.45;;
33690;SDS011;20026;50.058;18.428;2022-11-21T00:45:35;93.85;;;37.25;;
33690;SDS011;20026;50.058;18.428;2022-11-21T00:48:01;94.45;;;38.05;;
33690;SDS011;20026;50.058;18.428;2022-11-21T00:50:27;104.97;;;42.97;;
33690;SDS011;20026;50.058;18.428;2022-11-21T00:52:53;109.05;;;41.92;;
33690;SDS011;20026;50.058;18.428;2022-11-21T00:55:20;101.75;;;43.03;;
33690;SDS011;20026;50.058;18.428;2022-11-21T00:57:46;101.05;;;40.35;;
33690;SDS011;20026;50.058;18.428;2022-11-21T01:00:12;101.30;;;41.13;;
33690;SDS011;20026;50.058;18.428;2022-11-21T01:02:38;101.43;;;40.67;;
33690;SDS011;20026;50.058;18.428;2022-11-21T01:05:04;93.72;;;37.75;;
33690;SDS011;20026;50.058;18.428;2022-11-21T01:07:30;93.57;;;36.83;;
33690;SDS011;20026;50.058;18.428;2022-11-21T01:09:56;89.85;;;36.17;;
33690;SDS011;20026;50.058;18.428;2022-11-21T01:12:22;92.47;;;37.92;;
33690;SDS011;20026;50.058;18.428;2022-11-21T01:14:48;83.72;;;34.28;;
33690;SDS011;20026;50.058;18.428;2022-11-21T01:17:14;91.85;;;36.47;;
33690;SDS011;20026;50.058;18.428;2022-11-21T01:19:40;92.10;;;34.30;;
33690;SDS011;20026;50.058;18.428;2022-11-21T01:22:06;90.25;;;36.55;;
33690;SDS011;20026;50.058;18.428;2022-11-21T01:24:32;88.18;;;36.10;;
33690;SDS011;20026;50.058;18.428;2022-11-21T01:26:58;90.95;;;36.40;;
33690;SDS011;20026;50.058;18.428;2022-11-21T01:29:24;91.70;;;37.33;;
33690;SDS011;20026;50.058;18.428;2022-11-21T01:31:50;90.07;;;37.30;;
33690;SDS011;20026;50.058;18.428;2022-11-21T01:34:16;96.43;;;38.58;;
33690;SDS011;20026;50.058;18.428;2022-11-21T01:36:42;88.90;;;36.10;;
33690;SDS011;20026;50.058;18.428;2022-11-21T01:39:09;94.10;;;39.95;;
33690;SDS011;20026;50.058;18.428;2022-11-21T01:41:36;99.68;;;41.60;;
33690;SDS011;20026;50.058;18.428;2022-11-21T01:44:08;102.32;;;42.00;;
33690;SDS011;20026;50.058;18.428;2022-11-21T01:46:35;101.03;;;39.50;;
33690;SDS011;20026;50.058;18.428;2022-11-21T01:49:02;101.13;;;42.80;;
33690;SDS011;20026;50.058;18.428;2022-11-21T01:54:13;67.70;;;30.50;;
33690;SDS011;20026;50.058;18.428;2022-11-21T01:56:52;88.38;;;36.13;;
33690;SDS011;20026;50.058;18.428;2022-11-21T02:02:06;84.68;;;36.42;;
33690;SDS011;20026;50.058;18.428;2022-11-21T02:04:33;89.55;;;37.30;;
33690;SDS011;20026;50.058;18.428;2022-11-21T02:07:00;107.22;;;48.13;;
33690;SDS011;20026;50.058;18.428;2022-11-21T02:09:27;104.53;;;45.63;;
33690;SDS011;20026;50.058;18.428;2022-11-21T02:11:54;101.40;;;44.13;;
33690;SDS011;20026;50.058;18.428;2022-11-21T02:14:22;102.23;;;44.47;;
33690;SDS011;20026;50.058;18.428;2022-11-21T02:16:48;103.88;;;44.60;;
33690;SDS011;20026;50.058;18.428;2022-11-21T02:19:19;91.20;;;41.00;;
33690;SDS011;20026;50.058;18.428;2022-11-21T02:21:56;94.03;;;40.05;;
33690;SDS011;20026;50.058;18.428;2022-11-21T02:24:42;104.53;;;45.15;;
33690;SDS011;20026;50.058;18.428;2022-11-21T02:27:10;98.68;;;42.45;;
33690;SDS011;20026;50.058;18.428;2022-11-21T02:29:36;83.78;;;37.22;;
33690;SDS011;20026;50.058;18.428;2022-11-21T02:32:02;83.50;;;37.63;;
33690;SDS011;20026;50.058;18.428;2022-11-21T02:34:29;123.57;;;52.25;;
33690;SDS011;20026;50.058;18.428;2022-11-21T02:36:55;212.68;;;84.75;;
33690;SDS011;20026;50.058;18.428;2022-11-21T02:39:22;132.18;;;55.30;;
33690;SDS011;20026;50.058;18.428;2022-11-21T02:41:53;106.38;;;45.25;;
33690;SDS011;20026;50.058;18.428;2022-11-21T02:44:23;108.95;;;44.92;;
33690;SDS011;20026;50.058;18.428;2022-11-21T02:46:51;114.00;;;45.85;;
33690;SDS011;20026;50.058;18.428;2022-11-21T02:49:21;134.82;;;53.05;;
33690;SDS011;20026;50.058;18.428;2022-11-21T02:51:49;245.55;;;82.38;;
33690;SDS011;20026;50.058;18.428;2022-11-21T02:54:15;188.38;;;66.25;;
33690;SDS011;20026;50.058;18.428;2022-11-21T02:56:41;158.32;;;58.53;;
33690;SDS011;20026;50.058;18.428;2022-11-21T02:59:07;228.55;;;79.03;;
33690;SDS011;20026;50.058;18.428;2022-11-21T03:01:33;267.90;;;87.28;;
33690;SDS011;20026;50.058;18.428;2022-11-21T03:03:58;133.40;;;51.42;;
33690;SDS011;20026;50.058;18.428;2022-11-21T03:06:24;102.25;;;41.65;;
33690;SDS011;20026;50.058;18.428;2022-11-21T03:08:50;108.05;;;41.67;;
33690;SDS011;20026;50.058;18.428;2022-11-21T03:11:16;194.57;;;69.30;;
33690;SDS011;20026;50.058;18.428;2022-11-21T03:13:42;108.65;;;46.22;;
33690;SDS011;20026;50.058;18.428;2022-11-21T03:16:08;99.97;;;39.50;;
33690;SDS011;20026;50.058;18.428;2022-11-21T03:18:34;85.93;;;34.42;;
33690;SDS011;20026;50.058;18.428;2022-11-21T03:21:00;119.63;;;46.80;;
33690;SDS011;20026;50.058;18.428;2022-11-21T03:23:26;174.77;;;67.63;;
33690;SDS011;20026;50.058;18.428;2022-11-21T03:25:52;176.88;;;68.65;;
33690;SDS011;20026;50.058;18.428;2022-11-21T03:28:18;210.70;;;85.40;;
33690;SDS011;20026;50.058;18.428;2022-11-21T03:30:44;124.13;;;52.53;;
33690;SDS011;20026;50.058;18.428;2022-11-21T03:33:10;125.88;;;53.65;;
33690;SDS011;20026;50.058;18.428;2022-11-21T03:35:36;119.25;;;53.78;;
33690;SDS011;20026;50.058;18.428;2022-11-21T03:38:02;146.93;;;64.00;;
33690;SDS011;20026;50.058;18.428;2022-11-21T03:40:28;115.15;;;52.33;;
33690;SDS011;20026;50.058;18.428;2022-11-21T03:42:54;99.85;;;43.15;;
33690;SDS011;20026;50.058;18.428;2022-11-21T03:45:20;118.88;;;52.13;;
33690;SDS011;20026;50.058;18.428;2022-11-21T03:47:46;119.35;;;50.80;;
33690;SDS011;20026;50.058;18.428;2022-11-21T03:50:12;126.38;;;54.58;;
33690;SDS011;20026;50.058;18.428;2022-11-21T03:52:42;109.72;;;49.38;;
33690;SDS011;20026;50.058;18.428;2022-11-21T03:55:08;118.30;;;48.25;;
33690;SDS011;20026;50.058;18.428;2022-11-21T03:57:34;121.40;;;52.20;;
33690;SDS011;20026;50.058;18.428;2022-11-21T04:00:00;125.70;;;53.28;;
33690;SDS011;20026;50.058;18.428;2022-11-21T04:02:26;176.07;;;85.90;;
33690;SDS011;20026;50.058;18.428;2022-11-21T04:04:52;147.45;;;64.68;;
33690;SDS011;20026;50.058;18.428;2022-11-21T04:07:18;327.55;;;116.95;;
33690;SDS011;20026;50.058;18.428;2022-11-21T04:09:44;239.25;;;107.00;;
33690;SDS011;20026;50.058;18.428;2022-11-21T04:12:10;239.77;;;74.82;;
33690;SDS011;20026;50.058;18.428;2022-11-21T04:14:36;118.70;;;47.80;;
33690;SDS011;20026;50.058;18.428;2022-11-21T04:17:02;181.60;;;57.58;;
33690;SDS011;20026;50.058;18.428;2022-11-21T04:19:28;206.27;;;63.45;;
33690;SDS011;20026;50.058;18.428;2022-11-21T04:21:54;108.18;;;45.80;;
33690;SDS011;20026;50.058;18.428;2022-11-21T04:24:20;155.13;;;53.83;;
33690;SDS011;20026;50.058;18.428;2022-11-21T04:26:46;124.97;;;49.08;;
33690;SDS011;20026;50.058;18.428;2022-11-21T04:29:12;127.90;;;50.83;;
33690;SDS011;20026;50.058;18.428;2022-11-21T04:31:38;135.23;;;50.78;;
33690;SDS011;20026;50.058;18.428;2022-11-21T04:34:04;218.18;;;69.70;;
33690;SDS011;20026;50.058;18.428;2022-11-21T04:36:30;121.47;;;48.25;;
33690;SDS011;20026;50.058;18.428;2022-11-21T04:38:56;228.55;;;72.38;;
33690;SDS011;20026;50.058;18.428;2022-11-21T04:41:22;176.63;;;63.55;;
33690;SDS011;20026;50.058;18.428;2022-11-21T04:43:48;216.43;;;73.68;;
33690;SDS011;20026;50.058;18.428;2022-11-21T04:46:14;240.02;;;82.68;;
33690;SDS011;20026;50.058;18.428;2022-11-21T04:48:39;242.00;;;85.85;;
33690;SDS011;20026;50.058;18.428;2022-11-21T04:51:06;212.20;;;85.50;;
33690;SDS011;20026;50.058;18.428;2022-11-21T04:53:32;343.08;;;111.60;;
33690;SDS011;20026;50.058;18.428;2022-11-21T04:55:58;168.48;;;67.75;;
33690;SDS011;20026;50.058;18.428;2022-11-21T04:58:24;721.78;;;206.52;;
33690;SDS011;20026;50.058;18.428;2022-11-21T05:00:50;550.13;;;160.30;;
33690;SDS011;20026;50.058;18.428;2022-11-21T05:03:16;1060.32;;;448.85;;
33690;SDS011;20026;50.058;18.428;2022-11-21T05:05:42;585.65;;;264.40;;
33690;SDS011;20026;50.058;18.428;2022-11-21T05:08:08;844.03;;;436.30;;
33690;SDS011;20026;50.058;18.428;2022-11-21T05:10:33;706.20;;;355.85;;
33690;SDS011;20026;50.058;18.428;2022-11-21T05:13:19;459.20;;;198.05;;
33690;SDS011;20026;50.058;18.428;2022-11-21T05:15:45;547.17;;;253.75;;
33690;SDS011;20026;50.058;18.428;2022-11-21T05:18:15;196.00;;;79.10;;
33690;SDS011;20026;50.058;18.428;2022-11-21T05:20:41;386.05;;;155.82;;
33690;SDS011;20026;50.058;18.428;2022-11-21T05:23:07;174.05;;;73.95;;
33690;SDS011;20026;50.058;18.428;2022-11-21T05:25:33;187.15;;;76.07;;
33690;SDS011;20026;50.058;18.428;2022-11-21T05:27:59;199.32;;;83.20;;
33690;SDS011;20026;50.058;18.428;2022-11-21T05:30:25;202.77;;;86.53;;
33690;SDS011;20026;50.058;18.428;2022-11-21T05:32:51;285.98;;;131.38;;
33690;SDS011;20026;50.058;18.428;2022-11-21T05:35:17;235.05;;;106.82;;
33690;SDS011;20026;50.058;18.428;2022-11-21T05:37:42;242.82;;;107.85;;
33690;SDS011;20026;50.058;18.428;2022-11-21T05:40:09;235.07;;;97.32;;
33690;SDS011;20026;50.058;18.428;2022-11-21T05:42:37;198.43;;;81.60;;
33690;SDS011;20026;50.058;18.428;2022-11-21T05:45:22;321.30;;;114.25;;
33690;SDS011;20026;50.058;18.428;2022-11-21T05:47:48;635.67;;;206.68;;
33690;SDS011;20026;50.058;18.428;2022-11-21T05:50:14;576.45;;;183.25;;
33690;SDS011;20026;50.058;18.428;2022-11-21T05:52:40;383.77;;;129.75;;
33690;SDS011;20026;50.058;18.428;2022-11-21T05:55:06;480.85;;;187.55;;
33690;SDS011;20026;50.058;18.428;2022-11-21T05:57:32;447.90;;;162.38;;
33690;SDS011;20026;50.058;18.428;2022-11-21T05:59:58;645.70;;;219.70;;
33690;SDS011;20026;50.058;18.428;2022-11-21T06:02:24;510.15;;;163.50;;
33690;SDS011;20026;50.058;18.428;2022-11-21T06:05:08;376.33;;;123.82;;
33690;SDS011;20026;50.058;18.428;2022-11-21T06:07:34;392.45;;;125.10;;
33690;SDS011;20026;50.058;18.428;2022-11-21T06:10:00;403.63;;;132.20;;
33690;SDS011;20026;50.058;18.428;2022-11-21T06:12:26;294.30;;;104.10;;
33690;SDS011;20026;50.058;18.428;2022-11-21T06:14:52;379.17;;;161.65;;
33690;SDS011;20026;50.058;18.428;2022-11-21T06:17:18;1001.17;;;687.88;;
33690;SDS011;20026;50.058;18.428;2022-11-21T06:19:44;1290.88;;;632.88;;
33690;SDS011;20026;50.058;18.428;2022-11-21T06:22:10;426.60;;;163.05;;
33690;SDS011;20026;50.058;18.428;2022-11-21T06:24:36;314.17;;;121.82;;
33690;SDS011;20026;50.058;18.428;2022-11-21T06:27:02;257.02;;;102.68;;
33690;SDS011;20026;50.058;18.428;2022-11-21T06:29:28;338.75;;;141.85;;
33690;SDS011;20026;50.058;18.428;2022-11-21T06:31:54;219.43;;;90.85;;
33690;SDS011;20026;50.058;18.428;2022-11-21T06:34:20;324.73;;;133.57;;
33690;SDS011;20026;50.058;18.428;2022-11-21T06:36:45;425.58;;;166.40;;
33690;SDS011;20026;50.058;18.428;2022-11-21T06:39:13;517.22;;;188.68;;
33690;SDS011;20026;50.058;18.428;2022-11-21T06:41:39;417.60;;;144.48;;
33690;SDS011;20026;50.058;18.428;2022-11-21T06:44:05;724.92;;;226.80;;
33690;SDS011;20026;50.058;18.428;2022-11-21T06:46:31;414.63;;;160.27;;
33690;SDS011;20026;50.058;18.428;2022-11-21T06:48:57;486.50;;;174.82;;
33690;SDS011;20026;50.058;18.428;2022-11-21T06:51:23;509.60;;;175.63;;
33690;SDS011;20026;50.058;18.428;2022-11-21T06:53:54;637.72;;;209.35;;
33690;SDS011;20026;50.058;18.428;2022-11-21T06:56:20;406.38;;;139.25;;
33690;SDS011;20026;50.058;18.428;2022-11-21T06:58:46;394.83;;;136.57;;
33690;SDS011;20026;50.058;18.428;2022-11-21T07:01:12;607.05;;;189.55;;
33690;SDS011;20026;50.058;18.428;2022-11-21T07:03:38;331.48;;;114.45;;
33690;SDS011;20026;50.058;18.428;2022-11-21T07:06:05;585.40;;;178.07;;
33690;SDS011;20026;50.058;18.428;2022-11-21T07:08:32;277.42;;;104.22;;
33690;SDS011;20026;50.058;18.428;2022-11-21T07:11:00;404.38;;;140.85;;
33690;SDS011;20026;50.058;18.428;2022-11-21T07:13:26;384.77;;;158.07;;
33690;SDS011;20026;50.058;18.428;2022-11-21T07:15:53;353.58;;;150.95;;
33690;SDS011;20026;50.058;18.428;2022-11-21T07:18:20;400.10;;;163.85;;
33690;SDS011;20026;50.058;18.428;2022-11-21T07:20:47;306.67;;;125.28;;
33690;SDS011;20026;50.058;18.428;2022-11-21T07:23:13;304.42;;;106.43;;
33690;SDS011;20026;50.058;18.428;2022-11-21T07:25:39;265.77;;;99.32;;
33690;SDS011;20026;50.058;18.428;2022-11-21T07:28:05;162.73;;;72.45;;
33690;SDS011;20026;50.058;18.428;2022-11-21T07:30:32;218.02;;;80.78;;
33690;SDS011;20026;50.058;18.428;2022-11-21T07:32:59;150.00;;;65.05;;
33690;SDS011;20026;50.058;18.428;2022-11-21T07:35:25;226.05;;;81.85;;
33690;SDS011;20026;50.058;18.428;2022-11-21T07:37:51;163.73;;;67.55;;
33690;SDS011;20026;50.058;18.428;2022-11-21T07:40:17;133.77;;;60.75;;
33690;SDS011;20026;50.058;18.428;2022-11-21T07:42:44;214.65;;;83.50;;
33690;SDS011;20026;50.058;18.428;2022-11-21T07:45:10;198.98;;;74.43;;
33690;SDS011;20026;50.058;18.428;2022-11-21T07:47:36;190.43;;;72.82;;
33690;SDS011;20026;50.058;18.428;2022-11-21T07:50:03;224.32;;;83.05;;
33690;SDS011;20026;50.058;18.428;2022-11-21T07:52:29;288.02;;;96.78;;
33690;SDS011;20026;50.058;18.428;2022-11-21T07:54:55;295.83;;;93.95;;
33690;SDS011;20026;50.058;18.428;2022-11-21T07:57:21;218.90;;;75.35;;
33690;SDS011;20026;50.058;18.428;2022-11-21T07:59:47;255.68;;;83.93;;
33690;SDS011;20026;50.058;18.428;2022-11-21T08:02:17;206.15;;;78.25;;
33690;SDS011;20026;50.058;18.428;2022-11-21T08:04:43;333.90;;;106.57;;
33690;SDS011;20026;50.058;18.428;2022-11-21T08:07:09;280.15;;;93.60;;
33690;SDS011;20026;50.058;18.428;2022-11-21T08:09:35;236.32;;;83.75;;
33690;SDS011;20026;50.058;18.428;2022-11-21T08:12:01;210.57;;;77.45;;
33690;SDS011;20026;50.058;18.428;2022-11-21T08:14:27;181.82;;;70.20;;
33690;SDS011;20026;50.058;18.428;2022-11-21T08:16:53;149.90;;;59.65;;
33690;SDS011;20026;50.058;18.428;2022-11-21T08:19:19;116.05;;;51.47;;
33690;SDS011;20026;50.058;18.428;2022-11-21T08:21:45;116.10;;;52.45;;
33690;SDS011;20026;50.058;18.428;2022-11-21T08:24:11;161.30;;;66.40;;
33690;SDS011;20026;50.058;18.428;2022-11-21T08:26:38;147.63;;;63.80;;
33690;SDS011;20026;50.058;18.428;2022-11-21T08:29:05;80.95;;;40.70;;
33690;SDS011;20026;50.058;18.428;2022-11-21T08:31:31;84.20;;;41.65;;
33690;SDS011;20026;50.058;18.428;2022-11-21T08:33:57;72.00;;;37.05;;
33690;SDS011;20026;50.058;18.428;2022-11-21T08:36:23;74.95;;;37.90;;
33690;SDS011;20026;50.058;18.428;2022-11-21T08:38:49;73.07;;;35.67;;
33690;SDS011;20026;50.058;18.428;2022-11-21T08:41:15;105.30;;;46.70;;
33690;SDS011;20026;50.058;18.428;2022-11-21T08:43:59;112.25;;;47.90;;
33690;SDS011;20026;50.058;18.428;2022-11-21T08:46:25;101.97;;;46.55;;
33690;SDS011;20026;50.058;18.428;2022-11-21T08:48:53;265.50;;;127.90;;
33690;SDS011;20026;50.058;18.428;2022-11-21T08:51:19;410.67;;;149.27;;
33690;SDS011;20026;50.058;18.428;2022-11-21T08:53:45;182.98;;;122.63;;
33690;SDS011;20026;50.058;18.428;2022-11-21T08:56:11;77.03;;;44.35;;
33690;SDS011;20026;50.058;18.428;2022-11-21T08:58:38;94.63;;;62.10;;
33690;SDS011;20026;50.058;18.428;2022-11-21T09:01:04;81.15;;;52.70;;
33690;SDS011;20026;50.058;18.428;2022-11-21T09:03:30;64.00;;;35.70;;
33690;SDS011;20026;50.058;18.428;2022-11-21T09:05:56;54.95;;;31.60;;
33690;SDS011;20026;50.058;18.428;2022-11-21T09:08:22;61.95;;;33.53;;
33690;SDS011;20026;50.058;18.428;2022-11-21T09:10:48;63.28;;;35.95;;
33690;SDS011;20026;50.058;18.428;2022-11-21T09:13:14;60.85;;;32.63;;
33690;SDS011;20026;50.058;18.428;2022-11-21T09:15:40;63.45;;;33.35;;
33690;SDS011;20026;50.058;18.428;2022-11-21T09:18:25;58.17;;;32.72;;
33690;SDS011;20026;50.058;18.428;2022-11-21T09:20:51;58.92;;;30.17;;
33690;SDS011;20026;50.058;18.428;2022-11-21T09:23:17;52.28;;;28.40;;
33690;SDS011;20026;50.058;18.428;2022-11-21T09:25:44;51.17;;;27.77;;
33690;SDS011;20026;50.058;18.428;2022-11-21T09:28:11;53.75;;;26.75;;
33690;SDS011;20026;50.058;18.428;2022-11-21T09:30:37;44.80;;;24.20;;
33690;SDS011;20026;50.058;18.428;2022-11-21T09:33:04;52.60;;;29.00;;
33690;SDS011;20026;50.058;18.428;2022-11-21T09:35:30;87.15;;;44.75;;
33690;SDS011;20026;50.058;18.428;2022-11-21T09:37:57;53.13;;;28.17;;
33690;SDS011;20026;50.058;18.428;2022-11-21T09:40:23;62.50;;;33.30;;
33690;SDS011;20026;50.058;18.428;2022-11-21T09:42:57;76.45;;;43.70;;
33690;SDS011;20026;50.058;18.428;2022-11-21T09:45:27;63.83;;;29.98;;
33690;SDS011;20026;50.058;18.428;2022-11-21T09:47:55;53.35;;;28.77;;
33690;SDS011;20026;50.058;18.428;2022-11-21T09:50:31;51.00;;;28.40;;
33690;SDS011;20026;50.058;18.428;2022-11-21T09:53:01;41.20;;;22.60;;
33690;SDS011;20026;50.058;18.428;2022-11-21T09:57:56;63.58;;;37.03;;
33690;SDS011;20026;50.058;18.428;2022-11-21T10:00:25;45.83;;;27.33;;
33690;SDS011;20026;50.058;18.428;2022-11-21T10:02:51;42.65;;;24.30;;
33690;SDS011;20026;50.058;18.428;2022-11-21T10:05:21;50.90;;;29.52;;
33690;SDS011;20026;50.058;18.428;2022-11-21T10:07:49;41.05;;;25.80;;
33690;SDS011;20026;50.058;18.428;2022-11-21T10:10:21;35.67;;;21.17;;
33690;SDS011;20026;50.058;18.428;2022-11-21T10:15:30;36.83;;;22.77;;
33690;SDS011;20026;50.058;18.428;2022-11-21T10:20:26;30.67;;;20.48;;
33690;SDS011;20026;50.058;18.428;2022-11-21T10:23:02;26.25;;;16.55;;
33690;SDS011;20026;50.058;18.428;2022-11-21T10:25:32;29.35;;;18.50;;
33690;SDS011;20026;50.058;18.428;2022-11-21T10:31:03;36.75;;;17.83;;
33690;SDS011;20026;50.058;18.428;2022-11-21T10:33:33;24.02;;;14.80;;
33690;SDS011;20026;50.058;18.428;2022-11-21T10:36:05;25.00;;;15.00;;
33690;SDS011;20026;50.058;18.428;2022-11-21T10:38:36;25.67;;;15.15;;
33690;SDS011;20026;50.058;18.428;2022-11-21T10:41:03;23.20;;;14.15;;
33690;SDS011;20026;50.058;18.428;2022-11-21T10:43:32;19.52;;;12.13;;
33690;SDS011;20026;50.058;18.428;2022-11-21T10:46:18;19.08;;;12.07;;
33690;SDS011;20026;50.058;18.428;2022-11-21T10:48:54;21.45;;;13.20;;
33690;SDS011;20026;50.058;18.428;2022-11-21T10:51:35;21.85;;;13.73;;
33690;SDS011;20026;50.058;18.428;2022-11-21T10:54:02;37.58;;;17.75;;
33690;SDS011;20026;50.058;18.428;2022-11-21T10:56:47;23.40;;;13.98;;
33690;SDS011;20026;50.058;18.428;2022-11-21T10:59:18;22.73;;;13.52;;
33690;SDS011;20026;50.058;18.428;2022-11-21T11:01:53;25.42;;;15.50;;
33690;SDS011;20026;50.058;18.428;2022-11-21T11:04:19;25.80;;;15.82;;
33690;SDS011;20026;50.058;18.428;2022-11-21T11:06:45;18.60;;;11.82;;
33690;SDS011;20026;50.058;18.428;2022-11-21T11:11:47;17.85;;;10.77;;
33690;SDS011;20026;50.058;18.428;2022-11-21T11:14:13;22.73;;;13.82;;
33690;SDS011;20026;50.058;18.428;2022-11-21T11:16:44;21.13;;;12.15;;
33690;SDS011;20026;50.058;18.428;2022-11-21T11:24:17;32.47;;;17.08;;
33690;SDS011;20026;50.058;18.428;2022-11-21T11:29:17;38.63;;;18.13;;
33690;SDS011;20026;50.058;18.428;2022-11-21T11:31:51;37.00;;;18.58;;
33690;SDS011;20026;50.058;18.428;2022-11-21T11:34:18;57.45;;;23.95;;
33690;SDS011;20026;50.058;18.428;2022-11-21T11:39:20;35.72;;;18.02;;
33690;SDS011;20026;50.058;18.428;2022-11-21T11:41:58;26.00;;;13.80;;
33690;SDS011;20026;50.058;18.428;2022-11-21T11:47:32;20.15;;;12.02;;
33690;SDS011;20026;50.058;18.428;2022-11-21T11:50:04;18.75;;;11.57;;
33690;SDS011;20026;50.058;18.428;2022-11-21T11:52:42;18.13;;;11.27;;
33690;SDS011;20026;50.058;18.428;2022-11-21T11:55:15;15.90;;;9.75;;
33690;SDS011;20026;50.058;18.428;2022-11-21T11:57:43;18.02;;;10.90;;
33690;SDS011;20026;50.058;18.428;2022-11-21T12:00:20;16.67;;;10.60;;
33690;SDS011;20026;50.058;18.428;2022-11-21T12:05:16;132.60;;;55.53;;
33690;SDS011;20026;50.058;18.428;2022-11-21T12:07:47;285.15;;;114.43;;
33690;SDS011;20026;50.058;18.428;2022-11-21T12:10:17;655.00;;;254.32;;
33690;SDS011;20026;50.058;18.428;2022-11-21T12:12:49;942.08;;;352.48;;
33690;SDS011;20026;50.058;18.428;2022-11-21T12:15:21;119.32;;;87.07;;
33690;SDS011;20026;50.058;18.428;2022-11-21T12:20:41;55.58;;;37.67;;
33690;SDS011;20026;50.058;18.428;2022-11-21T12:23:09;111.10;;;76.90;;
33690;SDS011;20026;50.058;18.428;2022-11-21T12:25:38;101.88;;;68.03;;
33690;SDS011;20026;50.058;18.428;2022-11-21T12:28:07;108.15;;;79.57;;
33690;SDS011;20026;50.058;18.428;2022-11-21T12:30:43;151.35;;;118.78;;
33690;SDS011;20026;50.058;18.428;2022-11-21T12:33:16;122.97;;;92.15;;
33690;SDS011;20026;50.058;18.428;2022-11-21T12:35:47;239.02;;;117.57;;
33690;SDS011;20026;50.058;18.428;2022-11-21T12:38:25;268.88;;;132.45;;
33690;SDS011;20026;50.058;18.428;2022-11-21T12:43:29;425.65;;;179.98;;
33690;SDS011;20026;50.058;18.428;2022-11-21T12:51:30;124.32;;;69.65;;
33690;SDS011;20026;50.058;18.428;2022-11-21T12:57:12;70.15;;;36.35;;
33690;SDS011;20026;50.058;18.428;2022-11-21T13:04:34;45.87;;;23.80;;
33690;SDS011;20026;50.058;18.428;2022-11-21T13:07:00;52.67;;;26.73;;
33690;SDS011;20026;50.058;18.428;2022-11-21T13:09:27;69.38;;;31.52;;
33690;SDS011;20026;50.058;18.428;2022-11-21T13:12:07;77.80;;;37.72;;
33690;SDS011;20026;50.058;18.428;2022-11-21T13:24:59;45.75;;;23.75;;
33690;SDS011;20026;50.058;18.428;2022-11-21T13:32:39;42.40;;;17.30;;
33690;SDS011;20026;50.058;18.428;2022-11-21T13:48:15;55.13;;;41.00;;
33690;SDS011;20026;50.058;18.428;2022-11-21T13:50:46;42.33;;;26.33;;
33690;SDS011;20026;50.058;18.428;2022-11-21T13:53:18;88.80;;;63.30;;
33690;SDS011;20026;50.058;18.428;2022-11-21T13:55:54;67.05;;;43.38;;
33690;SDS011;20026;50.058;18.428;2022-11-21T14:04:11;97.00;;;42.90;;
33690;SDS011;20026;50.058;18.428;2022-11-21T14:06:42;68.75;;;35.10;;
33690;SDS011;20026;50.058;18.428;2022-11-21T14:11:39;93.88;;;47.75;;
33690;SDS011;20026;50.058;18.428;2022-11-21T14:14:20;271.23;;;126.68;;
33690;SDS011;20026;50.058;18.428;2022-11-21T14:16:47;150.02;;;70.85;;
33690;SDS011;20026;50.058;18.428;2022-11-21T14:19:18;890.13;;;431.02;;
33690;SDS011;20026;50.058;18.428;2022-11-21T14:21:45;694.63;;;302.35;;
33690;SDS011;20026;50.058;18.428;2022-11-21T14:24:13;170.68;;;92.93;;
33690;SDS011;20026;50.058;18.428;2022-11-21T14:26:44;310.15;;;217.48;;
33690;SDS011;20026;50.058;18.428;2022-11-21T14:32:04;141.95;;;93.65;;
33690;SDS011;20026;50.058;18.428;2022-11-21T14:34:30;186.40;;;123.53;;
33690;SDS011;20026;50.058;18.428;2022-11-21T14:36:59;109.90;;;66.72;;
33690;SDS011;20026;50.058;18.428;2022-11-21T14:39:26;193.18;;;112.65;;
33690;SDS011;20026;50.058;18.428;2022-11-21T14:41:53;134.57;;;86.93;;
33690;SDS011;20026;50.058;18.428;2022-11-21T14:44:20;343.33;;;260.58;;
33690;SDS011;20026;50.058;18.428;2022-11-21T14:46:47;249.93;;;140.82;;
33690;SDS011;20026;50.058;18.428;2022-11-21T14:51:46;259.65;;;145.48;;
33690;SDS011;20026;50.058;18.428;2022-11-21T14:54:13;357.05;;;196.65;;
33690;SDS011;20026;50.058;18.428;2022-11-21T14:56:40;312.25;;;199.77;;
33690;SDS011;20026;50.058;18.428;2022-11-21T14:59:10;169.35;;;118.38;;
33690;SDS011;20026;50.058;18.428;2022-11-21T15:01:38;163.68;;;94.07;;
33690;SDS011;20026;50.058;18.428;2022-11-21T15:04:05;108.60;;;63.35;;
33690;SDS011;20026;50.058;18.428;2022-11-21T15:06:42;358.92;;;223.25;;
33690;SDS011;20026;50.058;18.428;2022-11-21T15:09:11;96.35;;;56.47;;
33690;SDS011;20026;50.058;18.428;2022-11-21T15:14:05;137.88;;;89.13;;
33690;SDS011;20026;50.058;18.428;2022-11-21T15:16:32;86.18;;;47.78;;
33690;SDS011;20026;50.058;18.428;2022-11-21T15:18:58;128.05;;;73.60;;
33690;SDS011;20026;50.058;18.428;2022-11-21T15:21:24;136.98;;;83.50;;
33690;SDS011;20026;50.058;18.428;2022-11-21T15:23:50;163.52;;;93.25;;
33690;SDS011;20026;50.058;18.428;2022-11-21T15:26:30;103.35;;;60.72;;
33690;SDS011;20026;50.058;18.428;2022-11-21T15:28:57;135.23;;;65.97;;
33690;SDS011;20026;50.058;18.428;2022-11-21T15:31:23;116.10;;;58.92;;
33690;SDS011;20026;50.058;18.428;2022-11-21T15:36:41;182.70;;;103.75;;
33690;SDS011;20026;50.058;18.428;2022-11-21T15:39:16;134.95;;;75.18;;
33690;SDS011;20026;50.058;18.428;2022-11-21T15:41:43;101.03;;;64.63;;
33690;SDS011;20026;50.058;18.428;2022-11-21T15:46:36;56.72;;;34.67;;